sensor_id;sensor_type;location;lat;lon;timestamp;temperature;humidity
10051;DHT22;5065;46.942;7.432;2023-12-28T00:00:31;3.90;99.90
10051;DHT22;5065;46.942;7.432;2023-12-28T00:02:59;3.90;99.90
10051;DHT22;5065;46.942;7.432;2023-12-28T00:05:27;3.80;99.90
10051;DHT22;5065;46.942;7.432;2023-12-28T00:07:54;3.80;99.90
10051;DHT22;5065;46.942;7.432;2023-12-28T00:10:23;3.80;99.90
10051;DHT22;5065;46.942;7.432;2023-12-28T00:12:51;3.90;99.90
10051;DHT22;5065;46.942;7.432;2023-12-28T00:15:18;3.90;99.90
10051;DHT22;5065;46.942;7.432;2023-12-28T00:17:45;3.90;99.90
10051;DHT22;5065;46.942;7.432;2023-12-28T00:20:12;3.90;99.90
10051;DHT22;5065;46.942;7.432;2023-12-28T00:22:41;3.80;99.90
10051;DHT22;5065;46.942;7.432;2023-12-28T00:25:08;3.80;99.90
10051;DHT22;5065;46.942;7.432;2023-12-28T00:27:35;3.80;99.90
10051;DHT22;5065;46.942;7.432;2023-12-28T00:30:04;3.80;99.90
10051;DHT22;5065;46.942;7.432;2023-12-28T00:32:32;3.80;99.90
10051;DHT22;5065;46.942;7.432;2023-12-28T00:35:00;3.70;99.90
10051;DHT22;5065;46.942;7.432;2023-12-28T00:37:27;3.70;99.90
10051;DHT22;5065;46.942;7.432;2023-12-28T00:39:56;3.70;99.90
10051;DHT22;5065;46.942;7.432;2023-12-28T00:42:23;3.70;99.90
10051;DHT22;5065;46.942;7.432;2023-12-28T00:44:51;3.70;99.90
10051;DHT22;5065;46.942;7.432;2023-12-28T00:47:18;3.70;99.90
10051;DHT22;5065;46.942;7.432;2023-12-28T00:49:46;3.70;99.90
10051;DHT22;5065;46.942;7.432;2023-12-28T00:52:13;3.70;99.90
10051;DHT22;5065;46.942;7.432;2023-12-28T00:54:40;3.70;99.90
10051;DHT22;5065;46.942;7.432;2023-12-28T00:57:08;3.70;99.90
10051;DHT22;5065;46.942;7.432;2023-12-28T00:59:36;3.70;99.90
10051;DHT22;5065;46.942;7.432;2023-12-28T01:02:03;3.70;99.90
10051;DHT22;5065;46.942;7.432;2023-12-28T01:04:30;3.70;99.90
10051;DHT22;5065;46.942;7.432;2023-12-28T01:06:58;3.70;99.90
10051;DHT22;5065;46.942;7.432;2023-12-28T01:09:27;3.70;99.90
10051;DHT22;5065;46.942;7.432;2023-12-28T01:11:54;3.70;99.90
10051;DHT22;5065;46.942;7.432;2023-12-28T01:14:23;3.70;99.90
10051;DHT22;5065;46.942;7.432;2023-12-28T01:16:51;3.70;99.90
10051;DHT22;5065;46.942;7.432;2023-12-28T01:19:18;3.70;99.90
10051;DHT22;5065;46.942;7.432;2023-12-28T01:21:45;3.70;99.90
10051;DHT22;5065;46.942;7.432;2023-12-28T01:24:12;3.60;99.90
10051;DHT22;5065;46.942;7.432;2023-12-28T01:26:40;3.60;99.90
10051;DHT22;5065;46.942;7.432;2023-12-28T01:29:07;3.50;99.90
10051;DHT22;5065;46.942;7.432;2023-12-28T01:31:35;3.50;99.90
10051;DHT22;5065;46.942;7.432;2023-12-28T01:34:04;3.50;99.90
10051;DHT22;5065;46.942;7.432;2023-12-28T01:36:31;3.40;99.90
10051;DHT22;5065;46.942;7.432;2023-12-28T01:38:58;3.50;99.90
10051;DHT22;5065;46.942;7.432;2023-12-28T01:41:26;3.50;99.90
10051;DHT22;5065;46.942;7.432;2023-12-28T01:43:53;3.50;99.90
10051;DHT22;5065;46.942;7.432;2023-12-28T01:46:21;3.50;99.90
10051;DHT22;5065;46.942;7.432;2023-12-28T01:48:50;3.60;99.90
10051;DHT22;5065;46.942;7.432;2023-12-28T01:51:17;3.60;99.90
10051;DHT22;5065;46.942;7.432;2023-12-28T01:53:47;3.50;99.90
10051;DHT22;5065;46.942;7.432;2023-12-28T01:56:15;3.50;99.90
10051;DHT22;5065;46.942;7.432;2023-12-28T01:58:44;3.50;99.90
10051;DHT22;5065;46.942;7.432;2023-12-28T02:01:13;3.50;99.90
10051;DHT22;5065;46.942;7.432;2023-12-28T02:03:40;3.50;99.90
10051;DHT22;5065;46.942;7.432;2023-12-28T02:06:09;3.50;99.90
10051;DHT22;5065;46.942;7.432;2023-12-28T02:08:37;3.50;99.90
10051;DHT22;5065;46.942;7.432;2023-12-28T02:11:04;3.40;99.90
10051;DHT22;5065;46.942;7.432;2023-12-28T02:13:30;3.40;99.90
10051;DHT22;5065;46.942;7.432;2023-12-28T02:16:01;3.40;99.90
10051;DHT22;5065;46.942;7.432;2023-12-28T02:18:34;3.40;99.90
10051;DHT22;5065;46.942;7.432;2023-12-28T02:21:05;3.40;99.90
10051;DHT22;5065;46.942;7.432;2023-12-28T02:23:34;3.40;99.90
10051;DHT22;5065;46.942;7.432;2023-12-28T02:26:03;3.40;99.90
10051;DHT22;5065;46.942;7.432;2023-12-28T02:28:30;3.40;99.90
10051;DHT22;5065;46.942;7.432;2023-12-28T02:30:59;3.40;99.90
10051;DHT22;5065;46.942;7.432;2023-12-28T02:33:32;3.40;99.90
10051;DHT22;5065;46.942;7.432;2023-12-28T02:36:02;3.40;99.90
10051;DHT22;5065;46.942;7.432;2023-12-28T02:38:33;3.40;99.90
10051;DHT22;5065;46.942;7.432;2023-12-28T02:41:05;3.40;99.90
10051;DHT22;5065;46.942;7.432;2023-12-28T02:43:32;3.30;99.90
10051;DHT22;5065;46.942;7.432;2023-12-28T02:46:00;3.30;99.90
10051;DHT22;5065;46.942;7.432;2023-12-28T02:48:27;3.30;99.90
10051;DHT22;5065;46.942;7.432;2023-12-28T02:50:54;3.30;99.90
10051;DHT22;5065;46.942;7.432;2023-12-28T02:53:21;3.30;99.90
10051;DHT22;5065;46.942;7.432;2023-12-28T02:55:48;3.20;99.90
10051;DHT22;5065;46.942;7.432;2023-12-28T02:58:17;3.20;99.90
10051;DHT22;5065;46.942;7.432;2023-12-28T03:00:45;3.20;99.90
10051;DHT22;5065;46.942;7.432;2023-12-28T03:03:12;3.20;99.90
10051;DHT22;5065;46.942;7.432;2023-12-28T03:05:40;3.20;99.90
10051;DHT22;5065;46.942;7.432;2023-12-28T03:08:07;3.20;99.90
10051;DHT22;5065;46.942;7.432;2023-12-28T03:10:34;3.20;99.90
10051;DHT22;5065;46.942;7.432;2023-12-28T03:13:01;3.10;99.90
10051;DHT22;5065;46.942;7.432;2023-12-28T03:15:30;2.90;99.90
10051;DHT22;5065;46.942;7.432;2023-12-28T03:17:57;2.90;99.90
10051;DHT22;5065;46.942;7.432;2023-12-28T03:20:24;3.00;99.90
10051;DHT22;5065;46.942;7.432;2023-12-28T03:22:51;3.00;99.90
10051;DHT22;5065;46.942;7.432;2023-12-28T03:25:18;3.00;99.90
10051;DHT22;5065;46.942;7.432;2023-12-28T03:27:45;3.00;99.90
10051;DHT22;5065;46.942;7.432;2023-12-28T03:30:13;3.10;99.90
10051;DHT22;5065;46.942;7.432;2023-12-28T03:32:41;3.10;99.90
10051;DHT22;5065;46.942;7.432;2023-12-28T03:35:09;3.10;99.90
10051;DHT22;5065;46.942;7.432;2023-12-28T03:37:36;3.10;99.90
10051;DHT22;5065;46.942;7.432;2023-12-28T03:40:04;3.10;99.90
10051;DHT22;5065;46.942;7.432;2023-12-28T03:42:31;3.10;99.90
10051;DHT22;5065;46.942;7.432;2023-12-28T03:44:58;3.20;99.90
10051;DHT22;5065;46.942;7.432;2023-12-28T03:47:25;3.20;99.90
10051;DHT22;5065;46.942;7.432;2023-12-28T03:49:54;3.20;99.90
10051;DHT22;5065;46.942;7.432;2023-12-28T03:52:22;3.20;99.90
10051;DHT22;5065;46.942;7.432;2023-12-28T03:54:49;3.20;99.90
10051;DHT22;5065;46.942;7.432;2023-12-28T03:57:17;3.20;99.90
10051;DHT22;5065;46.942;7.432;2023-12-28T03:59:44;3.30;99.90
10051;DHT22;5065;46.942;7.432;2023-12-28T04:02:13;3.10;99.90
10051;DHT22;5065;46.942;7.432;2023-12-28T04:04:40;3.20;99.90
10051;DHT22;5065;46.942;7.432;2023-12-28T04:07:09;3.20;99.90
10051;DHT22;5065;46.942;7.432;2023-12-28T04:09:36;3.20;99.90
10051;DHT22;5065;46.942;7.432;2023-12-28T04:12:03;3.20;99.90
10051;DHT22;5065;46.942;7.432;2023-12-28T04:14:31;3.30;99.90
10051;DHT22;5065;46.942;7.432;2023-12-28T04:16:58;3.40;99.90
10051;DHT22;5065;46.942;7.432;2023-12-28T04:19:25;3.30;99.90
10051;DHT22;5065;46.942;7.432;2023-12-28T04:21:52;3.20;99.90
10051;DHT22;5065;46.942;7.432;2023-12-28T04:24:23;3.20;99.90
10051;DHT22;5065;46.942;7.432;2023-12-28T04:26:50;3.20;99.90
10051;DHT22;5065;46.942;7.432;2023-12-28T04:29:17;3.20;99.90
10051;DHT22;5065;46.942;7.432;2023-12-28T04:31:44;3.20;99.90
10051;DHT22;5065;46.942;7.432;2023-12-28T04:34:12;3.20;99.90
10051;DHT22;5065;46.942;7.432;2023-12-28T04:36:42;3.30;99.90
10051;DHT22;5065;46.942;7.432;2023-12-28T04:39:10;3.20;99.90
10051;DHT22;5065;46.942;7.432;2023-12-28T04:41:38;3.30;99.90
10051;DHT22;5065;46.942;7.432;2023-12-28T04:44:06;3.30;99.90
10051;DHT22;5065;46.942;7.432;2023-12-28T04:46:37;3.40;99.90
10051;DHT22;5065;46.942;7.432;2023-12-28T04:49:04;3.40;99.90
10051;DHT22;5065;46.942;7.432;2023-12-28T04:51:31;3.30;99.90
10051;DHT22;5065;46.942;7.432;2023-12-28T04:53:58;3.30;99.90
10051;DHT22;5065;46.942;7.432;2023-12-28T04:56:25;3.30;99.90
10051;DHT22;5065;46.942;7.432;2023-12-28T04:58:54;3.20;99.90
10051;DHT22;5065;46.942;7.432;2023-12-28T05:01:23;3.20;99.90
10051;DHT22;5065;46.942;7.432;2023-12-28T05:03:50;3.20;99.90
10051;DHT22;5065;46.942;7.432;2023-12-28T05:06:19;3.20;99.90
10051;DHT22;5065;46.942;7.432;2023-12-28T05:08:46;3.30;99.90
10051;DHT22;5065;46.942;7.432;2023-12-28T05:11:13;3.20;99.90
10051;DHT22;5065;46.942;7.432;2023-12-28T05:13:40;3.20;99.90
10051;DHT22;5065;46.942;7.432;2023-12-28T05:16:09;3.10;99.90
10051;DHT22;5065;46.942;7.432;2023-12-28T05:18:36;3.20;99.90
10051;DHT22;5065;46.942;7.432;2023-12-28T05:21:04;3.30;99.90
10051;DHT22;5065;46.942;7.432;2023-12-28T05:23:31;3.30;99.90
10051;DHT22;5065;46.942;7.432;2023-12-28T05:25:58;3.20;99.90
10051;DHT22;5065;46.942;7.432;2023-12-28T05:28:25;3.30;99.90
10051;DHT22;5065;46.942;7.432;2023-12-28T05:30:53;3.30;99.90
10051;DHT22;5065;46.942;7.432;2023-12-28T05:33:21;3.20;99.90
10051;DHT22;5065;46.942;7.432;2023-12-28T05:35:49;3.30;99.90
10051;DHT22;5065;46.942;7.432;2023-12-28T05:38:16;3.20;99.90
10051;DHT22;5065;46.942;7.432;2023-12-28T05:40:43;3.30;99.90
10051;DHT22;5065;46.942;7.432;2023-12-28T05:43:11;3.20;99.90
10051;DHT22;5065;46.942;7.432;2023-12-28T05:45:40;3.30;99.90
10051;DHT22;5065;46.942;7.432;2023-12-28T05:48:08;3.30;99.90
10051;DHT22;5065;46.942;7.432;2023-12-28T05:50:36;3.30;99.90
10051;DHT22;5065;46.942;7.432;2023-12-28T05:53:04;3.20;99.90
10051;DHT22;5065;46.942;7.432;2023-12-28T05:55:31;3.20;99.90
10051;DHT22;5065;46.942;7.432;2023-12-28T05:57:58;3.30;99.90
10051;DHT22;5065;46.942;7.432;2023-12-28T06:00:25;3.30;99.90
10051;DHT22;5065;46.942;7.432;2023-12-28T06:02:55;3.30;99.90
10051;DHT22;5065;46.942;7.432;2023-12-28T06:05:23;3.30;99.90
10051;DHT22;5065;46.942;7.432;2023-12-28T06:07:51;3.30;99.90
10051;DHT22;5065;46.942;7.432;2023-12-28T06:10:19;3.40;99.90
10051;DHT22;5065;46.942;7.432;2023-12-28T06:12:49;3.30;99.90
10051;DHT22;5065;46.942;7.432;2023-12-28T06:15:17;3.40;99.90
10051;DHT22;5065;46.942;7.432;2023-12-28T06:17:44;3.30;99.90
10051;DHT22;5065;46.942;7.432;2023-12-28T06:20:11;3.30;99.90
10051;DHT22;5065;46.942;7.432;2023-12-28T06:22:39;3.40;99.90
10051;DHT22;5065;46.942;7.432;2023-12-28T06:25:08;3.40;99.90
10051;DHT22;5065;46.942;7.432;2023-12-28T06:27:38;3.40;99.90
10051;DHT22;5065;46.942;7.432;2023-12-28T06:30:06;3.30;99.90
10051;DHT22;5065;46.942;7.432;2023-12-28T06:32:35;3.40;99.90
10051;DHT22;5065;46.942;7.432;2023-12-28T06:35:03;3.40;99.90
10051;DHT22;5065;46.942;7.432;2023-12-28T06:37:30;3.40;99.90
10051;DHT22;5065;46.942;7.432;2023-12-28T06:39:57;3.40;99.90
10051;DHT22;5065;46.942;7.432;2023-12-28T06:42:26;3.40;99.90
10051;DHT22;5065;46.942;7.432;2023-12-28T06:44:53;3.30;99.90
10051;DHT22;5065;46.942;7.432;2023-12-28T06:47:20;3.30;99.90
10051;DHT22;5065;46.942;7.432;2023-12-28T06:49:48;3.30;99.90
10051;DHT22;5065;46.942;7.432;2023-12-28T06:52:15;3.20;99.90
10051;DHT22;5065;46.942;7.432;2023-12-28T06:54:42;3.20;99.90
10051;DHT22;5065;46.942;7.432;2023-12-28T06:57:09;3.20;99.90
10051;DHT22;5065;46.942;7.432;2023-12-28T06:59:38;3.20;99.90
10051;DHT22;5065;46.942;7.432;2023-12-28T07:02:05;3.20;99.90
10051;DHT22;5065;46.942;7.432;2023-12-28T07:04:32;3.20;99.90
10051;DHT22;5065;46.942;7.432;2023-12-28T07:07:00;3.20;99.90
10051;DHT22;5065;46.942;7.432;2023-12-28T07:09:27;3.20;99.90
10051;DHT22;5065;46.942;7.432;2023-12-28T07:11:54;3.20;99.90
10051;DHT22;5065;46.942;7.432;2023-12-28T07:14:21;3.20;99.90
10051;DHT22;5065;46.942;7.432;2023-12-28T07:16:50;3.30;99.90
10051;DHT22;5065;46.942;7.432;2023-12-28T07:19:17;3.30;99.90
10051;DHT22;5065;46.942;7.432;2023-12-28T07:21:45;3.30;99.90
10051;DHT22;5065;46.942;7.432;2023-12-28T07:24:18;3.30;99.90
10051;DHT22;5065;46.942;7.432;2023-12-28T07:26:45;3.30;99.90
10051;DHT22;5065;46.942;7.432;2023-12-28T07:29:13;3.30;99.90
10051;DHT22;5065;46.942;7.432;2023-12-28T07:31:40;3.30;99.90
10051;DHT22;5065;46.942;7.432;2023-12-28T07:34:08;3.30;99.90
10051;DHT22;5065;46.942;7.432;2023-12-28T07:36:36;3.30;99.90
10051;DHT22;5065;46.942;7.432;2023-12-28T07:39:04;3.40;99.90
10051;DHT22;5065;46.942;7.432;2023-12-28T07:41:31;3.40;99.90
10051;DHT22;5065;46.942;7.432;2023-12-28T07:43:58;3.40;99.90
10051;DHT22;5065;46.942;7.432;2023-12-28T07:46:26;3.40;99.90
10051;DHT22;5065;46.942;7.432;2023-12-28T07:48:53;3.50;99.90
10051;DHT22;5065;46.942;7.432;2023-12-28T07:51:21;3.50;99.90
10051;DHT22;5065;46.942;7.432;2023-12-28T07:53:49;3.50;99.90
10051;DHT22;5065;46.942;7.432;2023-12-28T07:56:16;3.50;99.90
10051;DHT22;5065;46.942;7.432;2023-12-28T07:58:43;3.50;99.90
10051;DHT22;5065;46.942;7.432;2023-12-28T08:01:10;3.50;99.90
10051;DHT22;5065;46.942;7.432;2023-12-28T08:03:38;3.50;99.90
10051;DHT22;5065;46.942;7.432;2023-12-28T08:06:05;3.60;99.90
10051;DHT22;5065;46.942;7.432;2023-12-28T08:08:34;3.60;99.90
10051;DHT22;5065;46.942;7.432;2023-12-28T08:11:03;3.60;99.90
10051;DHT22;5065;46.942;7.432;2023-12-28T08:13:30;3.60;99.90
10051;DHT22;5065;46.942;7.432;2023-12-28T08:15:58;3.70;99.90
10051;DHT22;5065;46.942;7.432;2023-12-28T08:18:25;3.70;99.90
10051;DHT22;5065;46.942;7.432;2023-12-28T08:20:52;3.80;99.90
10051;DHT22;5065;46.942;7.432;2023-12-28T08:23:20;3.80;99.90
10051;DHT22;5065;46.942;7.432;2023-12-28T08:25:48;3.70;99.90
10051;DHT22;5065;46.942;7.432;2023-12-28T08:28:15;3.80;99.90
10051;DHT22;5065;46.942;7.432;2023-12-28T08:30:48;3.80;99.90
10051;DHT22;5065;46.942;7.432;2023-12-28T08:33:18;3.80;99.90
10051;DHT22;5065;46.942;7.432;2023-12-28T08:35:45;3.90;99.90
10051;DHT22;5065;46.942;7.432;2023-12-28T08:38:13;3.90;99.90
10051;DHT22;5065;46.942;7.432;2023-12-28T08:40:40;3.90;99.90
10051;DHT22;5065;46.942;7.432;2023-12-28T08:43:08;4.00;99.90
10051;DHT22;5065;46.942;7.432;2023-12-28T08:45:36;4.00;99.90
10051;DHT22;5065;46.942;7.432;2023-12-28T08:48:04;4.00;99.90
10051;DHT22;5065;46.942;7.432;2023-12-28T08:50:33;4.00;99.90
10051;DHT22;5065;46.942;7.432;2023-12-28T08:53:03;4.10;99.90
10051;DHT22;5065;46.942;7.432;2023-12-28T08:55:32;4.10;99.90
10051;DHT22;5065;46.942;7.432;2023-12-28T08:57:59;4.20;99.90
10051;DHT22;5065;46.942;7.432;2023-12-28T09:00:32;4.20;99.90
10051;DHT22;5065;46.942;7.432;2023-12-28T09:02:59;4.30;99.90
10051;DHT22;5065;46.942;7.432;2023-12-28T09:05:27;4.30;99.90
10051;DHT22;5065;46.942;7.432;2023-12-28T09:07:54;4.30;99.90
10051;DHT22;5065;46.942;7.432;2023-12-28T09:10:21;4.30;99.90
10051;DHT22;5065;46.942;7.432;2023-12-28T09:12:48;4.40;99.90
10051;DHT22;5065;46.942;7.432;2023-12-28T09:15:16;4.40;99.90
10051;DHT22;5065;46.942;7.432;2023-12-28T09:17:45;4.50;99.90
10051;DHT22;5065;46.942;7.432;2023-12-28T09:20:12;4.50;99.90
10051;DHT22;5065;46.942;7.432;2023-12-28T09:22:41;4.50;99.90
10051;DHT22;5065;46.942;7.432;2023-12-28T09:25:08;4.60;99.90
10051;DHT22;5065;46.942;7.432;2023-12-28T09:27:36;4.60;99.90
10051;DHT22;5065;46.942;7.432;2023-12-28T09:30:03;4.60;99.90
10051;DHT22;5065;46.942;7.432;2023-12-28T09:32:31;4.60;99.90
10051;DHT22;5065;46.942;7.432;2023-12-28T09:35:00;4.60;99.90
10051;DHT22;5065;46.942;7.432;2023-12-28T09:37:30;4.70;99.90
10051;DHT22;5065;46.942;7.432;2023-12-28T09:39:57;4.70;99.90
10051;DHT22;5065;46.942;7.432;2023-12-28T09:42:26;4.70;99.90
10051;DHT22;5065;46.942;7.432;2023-12-28T09:44:57;4.60;99.90
10051;DHT22;5065;46.942;7.432;2023-12-28T09:47:24;4.60;99.90
10051;DHT22;5065;46.942;7.432;2023-12-28T09:49:51;4.60;99.90
10051;DHT22;5065;46.942;7.432;2023-12-28T09:52:21;4.60;99.90
10051;DHT22;5065;46.942;7.432;2023-12-28T09:54:48;4.70;99.90
10051;DHT22;5065;46.942;7.432;2023-12-28T09:57:16;4.70;99.90
10051;DHT22;5065;46.942;7.432;2023-12-28T09:59:46;4.70;99.90
10051;DHT22;5065;46.942;7.432;2023-12-28T10:02:13;4.80;99.90
10051;DHT22;5065;46.942;7.432;2023-12-28T10:04:42;4.70;99.90
10051;DHT22;5065;46.942;7.432;2023-12-28T10:07:09;4.80;99.90
10051;DHT22;5065;46.942;7.432;2023-12-28T10:09:50;4.90;99.90
10051;DHT22;5065;46.942;7.432;2023-12-28T10:12:17;4.90;99.90
10051;DHT22;5065;46.942;7.432;2023-12-28T10:14:44;4.90;99.90
10051;DHT22;5065;46.942;7.432;2023-12-28T10:17:11;5.00;99.90
10051;DHT22;5065;46.942;7.432;2023-12-28T10:19:39;4.90;99.90
10051;DHT22;5065;46.942;7.432;2023-12-28T10:22:06;5.00;99.90
10051;DHT22;5065;46.942;7.432;2023-12-28T10:24:33;5.00;99.90
10051;DHT22;5065;46.942;7.432;2023-12-28T10:27:02;5.00;99.90
10051;DHT22;5065;46.942;7.432;2023-12-28T10:29:29;5.00;99.90
10051;DHT22;5065;46.942;7.432;2023-12-28T10:31:57;5.00;99.90
10051;DHT22;5065;46.942;7.432;2023-12-28T10:34:25;5.00;99.90
10051;DHT22;5065;46.942;7.432;2023-12-28T10:36:53;4.90;99.90
10051;DHT22;5065;46.942;7.432;2023-12-28T10:39:23;4.90;99.90
10051;DHT22;5065;46.942;7.432;2023-12-28T10:41:51;4.80;99.90
10051;DHT22;5065;46.942;7.432;2023-12-28T10:44:23;4.90;99.90
10051;DHT22;5065;46.942;7.432;2023-12-28T10:46:57;5.00;99.90
10051;DHT22;5065;46.942;7.432;2023-12-28T10:49:28;5.00;99.90
10051;DHT22;5065;46.942;7.432;2023-12-28T10:51:58;5.10;99.90
10051;DHT22;5065;46.942;7.432;2023-12-28T10:54:33;5.20;99.90
10051;DHT22;5065;46.942;7.432;2023-12-28T10:57:09;5.30;99.90
10051;DHT22;5065;46.942;7.432;2023-12-28T10:59:45;5.30;99.90
10051;DHT22;5065;46.942;7.432;2023-12-28T11:02:18;5.40;99.90
10051;DHT22;5065;46.942;7.432;2023-12-28T11:04:49;5.40;99.90
10051;DHT22;5065;46.942;7.432;2023-12-28T11:07:18;5.40;99.90
10051;DHT22;5065;46.942;7.432;2023-12-28T11:09:46;5.50;99.90
10051;DHT22;5065;46.942;7.432;2023-12-28T11:12:16;5.60;99.90
10051;DHT22;5065;46.942;7.432;2023-12-28T11:14:47;5.60;99.90
10051;DHT22;5065;46.942;7.432;2023-12-28T11:17:17;5.70;99.90
10051;DHT22;5065;46.942;7.432;2023-12-28T11:19:44;5.80;99.90
10051;DHT22;5065;46.942;7.432;2023-12-28T11:22:11;5.80;99.90
10051;DHT22;5065;46.942;7.432;2023-12-28T11:24:39;5.80;99.90
10051;DHT22;5065;46.942;7.432;2023-12-28T11:27:07;5.90;99.90
10051;DHT22;5065;46.942;7.432;2023-12-28T11:29:34;5.90;99.90
10051;DHT22;5065;46.942;7.432;2023-12-28T11:32:03;6.00;99.90
10051;DHT22;5065;46.942;7.432;2023-12-28T11:34:31;6.10;99.90
10051;DHT22;5065;46.942;7.432;2023-12-28T11:37:02;6.10;99.90
10051;DHT22;5065;46.942;7.432;2023-12-28T11:39:32;6.10;99.90
10051;DHT22;5065;46.942;7.432;2023-12-28T11:42:00;6.20;99.90
10051;DHT22;5065;46.942;7.432;2023-12-28T11:44:28;6.20;99.90
10051;DHT22;5065;46.942;7.432;2023-12-28T11:46:56;6.30;99.90
10051;DHT22;5065;46.942;7.432;2023-12-28T11:49:26;6.30;99.90
10051;DHT22;5065;46.942;7.432;2023-12-28T11:51:57;6.40;99.90
10051;DHT22;5065;46.942;7.432;2023-12-28T11:54:25;6.40;99.90
10051;DHT22;5065;46.942;7.432;2023-12-28T11:56:53;6.40;99.90
10051;DHT22;5065;46.942;7.432;2023-12-28T11:59:20;6.50;99.90
10051;DHT22;5065;46.942;7.432;2023-12-28T12:01:50;6.40;99.90
10051;DHT22;5065;46.942;7.432;2023-12-28T12:04:17;6.50;99.90
10051;DHT22;5065;46.942;7.432;2023-12-28T12:06:47;6.40;99.90
10051;DHT22;5065;46.942;7.432;2023-12-28T12:09:16;6.50;99.90
10051;DHT22;5065;46.942;7.432;2023-12-28T12:11:44;6.60;99.90
10051;DHT22;5065;46.942;7.432;2023-12-28T12:14:11;6.50;99.90
10051;DHT22;5065;46.942;7.432;2023-12-28T12:16:38;6.70;99.90
10051;DHT22;5065;46.942;7.432;2023-12-28T12:19:06;6.70;99.90
10051;DHT22;5065;46.942;7.432;2023-12-28T12:21:33;6.70;99.90
10051;DHT22;5065;46.942;7.432;2023-12-28T12:24:03;6.70;99.90
10051;DHT22;5065;46.942;7.432;2023-12-28T12:26:30;6.80;99.90
10051;DHT22;5065;46.942;7.432;2023-12-28T12:28:58;6.80;99.90
10051;DHT22;5065;46.942;7.432;2023-12-28T12:31:25;6.80;99.90
10051;DHT22;5065;46.942;7.432;2023-12-28T12:33:53;6.80;99.90
10051;DHT22;5065;46.942;7.432;2023-12-28T12:36:23;6.80;99.90
10051;DHT22;5065;46.942;7.432;2023-12-28T12:38:50;6.80;99.90
10051;DHT22;5065;46.942;7.432;2023-12-28T12:41:19;6.80;99.90
10051;DHT22;5065;46.942;7.432;2023-12-28T12:43:46;6.90;99.90
10051;DHT22;5065;46.942;7.432;2023-12-28T12:46:16;6.80;99.90
10051;DHT22;5065;46.942;7.432;2023-12-28T12:48:53;6.90;99.90
10051;DHT22;5065;46.942;7.432;2023-12-28T12:51:20;6.90;99.90
10051;DHT22;5065;46.942;7.432;2023-12-28T12:53:48;6.90;99.90
10051;DHT22;5065;46.942;7.432;2023-12-28T12:56:15;6.90;99.90
10051;DHT22;5065;46.942;7.432;2023-12-28T12:58:45;6.90;99.90
10051;DHT22;5065;46.942;7.432;2023-12-28T13:01:17;6.90;99.90
10051;DHT22;5065;46.942;7.432;2023-12-28T13:03:45;6.90;99.90
10051;DHT22;5065;46.942;7.432;2023-12-28T13:06:14;6.90;99.90
10051;DHT22;5065;46.942;7.432;2023-12-28T13:08:42;6.90;99.90
10051;DHT22;5065;46.942;7.432;2023-12-28T13:11:09;6.90;99.90
10051;DHT22;5065;46.942;7.432;2023-12-28T13:13:36;7.00;99.90
10051;DHT22;5065;46.942;7.432;2023-12-28T13:16:05;7.00;99.90
10051;DHT22;5065;46.942;7.432;2023-12-28T13:18:33;7.00;99.90
10051;DHT22;5065;46.942;7.432;2023-12-28T13:21:01;7.00;99.90
10051;DHT22;5065;46.942;7.432;2023-12-28T13:23:28;7.00;99.90
10051;DHT22;5065;46.942;7.432;2023-12-28T13:25:55;7.00;99.90
10051;DHT22;5065;46.942;7.432;2023-12-28T13:28:23;7.00;99.90
10051;DHT22;5065;46.942;7.432;2023-12-28T13:30:50;7.00;99.90
10051;DHT22;5065;46.942;7.432;2023-12-28T13:33:22;7.10;99.90
10051;DHT22;5065;46.942;7.432;2023-12-28T13:35:50;7.10;99.90
10051;DHT22;5065;46.942;7.432;2023-12-28T13:38:18;7.00;99.90
10051;DHT22;5065;46.942;7.432;2023-12-28T13:40:45;7.00;99.90
10051;DHT22;5065;46.942;7.432;2023-12-28T13:43:12;7.00;99.90
10051;DHT22;5065;46.942;7.432;2023-12-28T13:45:39;7.10;99.90
10051;DHT22;5065;46.942;7.432;2023-12-28T13:48:07;7.00;99.90
10051;DHT22;5065;46.942;7.432;2023-12-28T13:50:36;7.00;99.90
10051;DHT22;5065;46.942;7.432;2023-12-28T13:53:04;7.00;99.90
10051;DHT22;5065;46.942;7.432;2023-12-28T13:55:34;7.00;99.90
10051;DHT22;5065;46.942;7.432;2023-12-28T13:58:01;7.00;99.90
10051;DHT22;5065;46.942;7.432;2023-12-28T14:00:30;6.90;99.90
10051;DHT22;5065;46.942;7.432;2023-12-28T14:02:57;7.10;99.90
10051;DHT22;5065;46.942;7.432;2023-12-28T14:05:25;7.00;99.90
10051;DHT22;5065;46.942;7.432;2023-12-28T14:07:53;6.90;99.90
10051;DHT22;5065;46.942;7.432;2023-12-28T14:10:20;6.90;99.90
10051;DHT22;5065;46.942;7.432;2023-12-28T14:12:47;6.90;99.90
10051;DHT22;5065;46.942;7.432;2023-12-28T14:15:15;6.90;99.90
10051;DHT22;5065;46.942;7.432;2023-12-28T14:17:42;7.00;99.90
10051;DHT22;5065;46.942;7.432;2023-12-28T14:20:10;6.90;99.90
10051;DHT22;5065;46.942;7.432;2023-12-28T14:22:41;6.80;99.90
10051;DHT22;5065;46.942;7.432;2023-12-28T14:25:11;6.80;99.90
10051;DHT22;5065;46.942;7.432;2023-12-28T14:27:40;6.80;99.90
10051;DHT22;5065;46.942;7.432;2023-12-28T14:30:11;6.90;99.90
10051;DHT22;5065;46.942;7.432;2023-12-28T14:32:38;6.80;99.90
10051;DHT22;5065;46.942;7.432;2023-12-28T14:35:07;6.90;99.90
10051;DHT22;5065;46.942;7.432;2023-12-28T14:37:34;6.90;99.90
10051;DHT22;5065;46.942;7.432;2023-12-28T14:40:01;6.80;99.90
10051;DHT22;5065;46.942;7.432;2023-12-28T14:42:33;6.90;99.90
10051;DHT22;5065;46.942;7.432;2023-12-28T14:45:01;6.90;99.90
10051;DHT22;5065;46.942;7.432;2023-12-28T14:47:28;6.80;99.90
10051;DHT22;5065;46.942;7.432;2023-12-28T14:49:55;6.90;99.90
10051;DHT22;5065;46.942;7.432;2023-12-28T14:52:23;6.90;99.90
10051;DHT22;5065;46.942;7.432;2023-12-28T14:54:50;6.90;99.90
10051;DHT22;5065;46.942;7.432;2023-12-28T14:57:19;6.80;99.90
10051;DHT22;5065;46.942;7.432;2023-12-28T14:59:48;6.80;99.90
10051;DHT22;5065;46.942;7.432;2023-12-28T15:02:16;6.90;99.90
10051;DHT22;5065;46.942;7.432;2023-12-28T15:04:46;6.90;99.90
10051;DHT22;5065;46.942;7.432;2023-12-28T15:07:13;6.90;99.90
10051;DHT22;5065;46.942;7.432;2023-12-28T15:09:40;6.90;99.90
10051;DHT22;5065;46.942;7.432;2023-12-28T15:12:09;7.00;99.90
10051;DHT22;5065;46.942;7.432;2023-12-28T15:14:37;6.90;99.90
10051;DHT22;5065;46.942;7.432;2023-12-28T15:17:07;6.90;99.90
10051;DHT22;5065;46.942;7.432;2023-12-28T15:19:37;6.90;99.90
10051;DHT22;5065;46.942;7.432;2023-12-28T15:22:05;6.90;99.90
10051;DHT22;5065;46.942;7.432;2023-12-28T15:24:33;6.90;99.90
10051;DHT22;5065;46.942;7.432;2023-12-28T15:27:01;6.90;99.90
10051;DHT22;5065;46.942;7.432;2023-12-28T15:29:28;6.80;99.90
10051;DHT22;5065;46.942;7.432;2023-12-28T15:31:55;6.80;99.90
10051;DHT22;5065;46.942;7.432;2023-12-28T15:34:24;6.80;99.90
10051;DHT22;5065;46.942;7.432;2023-12-28T15:36:51;6.80;99.90
10051;DHT22;5065;46.942;7.432;2023-12-28T15:39:18;6.80;99.90
10051;DHT22;5065;46.942;7.432;2023-12-28T15:41:45;6.70;99.90
10051;DHT22;5065;46.942;7.432;2023-12-28T15:44:12;6.70;99.90
10051;DHT22;5065;46.942;7.432;2023-12-28T15:46:40;6.80;99.90
10051;DHT22;5065;46.942;7.432;2023-12-28T15:49:08;6.80;99.90
10051;DHT22;5065;46.942;7.432;2023-12-28T15:51:36;6.70;99.90
10051;DHT22;5065;46.942;7.432;2023-12-28T15:54:04;6.70;99.90
10051;DHT22;5065;46.942;7.432;2023-12-28T15:56:31;6.70;99.90
10051;DHT22;5065;46.942;7.432;2023-12-28T15:59:00;6.70;99.90
10051;DHT22;5065;46.942;7.432;2023-12-28T16:01:28;6.70;99.90
10051;DHT22;5065;46.942;7.432;2023-12-28T16:03:55;6.70;99.90
10051;DHT22;5065;46.942;7.432;2023-12-28T16:06:22;6.70;99.90